Time;durP1;ratioP1;P1;durP2;ratioP2;P2;SDS_P1;SDS_P2;PMS_P1;PMS_P2;Temp;Humidity;BMP_temperature;BMP_pressure;BME280_temperature;BME280_humidity;BME280_pressure;Samples;Min_cycle;Max_cycle;Signal;HPM_P1;HPM_P2
2021/01/19 00:01:32;;;;;;;16.43;14.93;;;;;;;3.39;85.57;100539.50;4997150;28;20212;-80
2021/01/19 00:03:58;;;;;;;15.63;14.37;;;;;;;3.49;85.34;100530.09;5000969;28;20554;-81
2021/01/19 00:06:24;;;;;;;15.93;14.57;;;;;;;3.45;85.46;100531.81;4995144;28;20288;-80
2021/01/19 00:08:50;;;;;;;15.27;14.07;;;;;;;3.44;84.96;100534.38;5014071;28;20199;-79
2021/01/19 00:11:16;;;;;;;14.30;13.03;;;;;;;3.45;85.10;100531.81;5005493;28;20235;-82
2021/01/19 00:13:41;;;;;;;14.50;13.37;;;;;;;3.51;84.82;100520.72;5015496;28;20249;-82
2021/01/19 00:16:08;;;;;;;15.93;14.63;;;;;;;3.36;85.03;100519.66;5004944;28;20222;-81
2021/01/19 00:18:34;;;;;;;15.57;14.20;;;;;;;3.43;85.25;100511.97;4999280;28;20202;-81
2021/01/19 00:21:00;;;;;;;15.43;14.03;;;;;;;3.39;85.58;100511.09;4998628;28;20312;-80
2021/01/19 00:23:26;;;;;;;16.60;15.20;;;;;;;3.45;85.48;100505.13;5005531;28;20255;-80
2021/01/19 00:25:52;;;;;;;14.87;13.77;;;;;;;3.49;85.54;100494.88;5003667;28;20318;-81
2021/01/19 00:28:17;;;;;;;14.73;13.40;;;;;;;3.51;85.63;100495.75;4998203;28;20196;-80
2021/01/19 00:30:44;;;;;;;13.93;12.73;;;;;;;3.56;85.61;100493.22;4997016;28;20234;-80
2021/01/19 00:33:11;;;;;;;17.03;15.60;;;;;;;3.61;85.12;100494.13;4997166;28;20327;-80
2021/01/19 00:35:40;;;;;;;17.47;15.97;;;;;;;3.65;85.00;100498.47;5002845;28;20211;-79
2021/01/19 00:38:06;;;;;;;18.03;16.30;;;;;;;3.60;85.58;100491.53;5000915;28;20203;-81
2021/01/19 00:40:32;;;;;;;16.17;14.77;;;;;;;3.58;85.58;100487.22;4999854;28;20225;-80
2021/01/19 00:42:58;;;;;;;16.97;15.57;;;;;;;3.60;85.87;100486.38;4998301;28;20291;-80
2021/01/19 00:45:24;;;;;;;17.63;16.10;;;;;;;3.69;85.40;100478.72;4997881;28;20207;-81
2021/01/19 00:47:50;;;;;;;16.33;14.83;;;;;;;3.68;85.09;100484.72;4997255;28;20206;-80
2021/01/19 00:50:17;;;;;;;17.20;15.70;;;;;;;3.62;85.20;100479.50;4997051;28;20223;-80
2021/01/19 00:52:43;;;;;;;17.97;16.47;;;;;;;3.63;85.31;100478.66;4998571;28;20211;-80
2021/01/19 00:55:10;;;;;;;17.33;15.93;;;;;;;3.73;85.37;100472.75;4998330;28;20257;-79
2021/01/19 00:57:36;;;;;;;17.40;15.90;;;;;;;3.71;85.32;100470.13;5005020;28;20214;-80
2021/01/19 01:00:04;;;;;;;16.77;15.00;;;;;;;3.77;84.72;100462.44;4995963;28;20223;-80
2021/01/19 01:02:30;;;;;;;16.27;14.80;;;;;;;3.83;84.64;100463.38;4996439;28;20206;-80
2021/01/19 01:04:56;;;;;;;15.63;14.33;;;;;;;3.70;85.35;100455.50;5003152;28;20203;-82
2021/01/19 01:07:23;;;;;;;16.47;14.97;;;;;;;3.74;84.83;100454.66;5004746;28;20313;-81
2021/01/19 01:09:49;;;;;;;16.87;15.37;;;;;;;3.76;84.98;100450.38;5003407;28;20235;-80
2021/01/19 01:12:14;;;;;;;16.10;14.83;;;;;;;3.83;84.79;100442.72;5007120;28;20242;-80
2021/01/19 01:14:40;;;;;;;16.20;14.90;;;;;;;3.77;84.15;100446.09;4997755;28;20204;-79
2021/01/19 01:17:06;;;;;;;14.73;13.40;;;;;;;3.85;84.02;100448.75;5006773;28;20202;-80
2021/01/19 01:19:32;;;;;;;16.33;14.90;;;;;;;3.91;84.24;100448.81;5018138;28;20250;-80
2021/01/19 01:21:59;;;;;;;15.33;13.93;;;;;;;3.81;83.95;100447.84;5000354;28;20199;-81
2021/01/19 01:24:26;;;;;;;14.97;13.80;;;;;;;3.84;84.07;100442.69;5001226;28;20207;-81
2021/01/19 01:26:52;;;;;;;14.63;13.50;;;;;;;3.93;83.59;100435.03;5001237;28;20226;-80
2021/01/19 01:29:18;;;;;;;14.50;13.33;;;;;;;3.97;84.00;100433.34;5001432;28;20723;-80
2021/01/19 01:31:44;;;;;;;14.20;13.00;;;;;;;3.98;83.78;100430.78;4997119;28;20207;-80
2021/01/19 01:34:10;;;;;;;15.27;13.87;;;;;;;3.98;83.91;100428.22;5001811;28;20203;-80
2021/01/19 01:36:39;;;;;;;15.00;13.73;;;;;;;3.99;83.68;100421.31;4996573;28;20241;-80
2021/01/19 01:39:05;;;;;;;13.67;12.60;;;;;;;4.03;83.13;100410.16;5000926;28;20281;-78
2021/01/19 01:41:32;;;;;;;14.87;13.60;;;;;;;4.03;83.29;100405.00;5006928;28;20207;-80
2021/01/19 01:44:01;;;;;;;14.07;12.97;;;;;;;3.92;83.76;100401.47;5010496;28;20206;-81
2021/01/19 01:46:29;;;;;;;14.27;13.10;;;;;;;3.96;83.34;100400.63;4993556;28;20310;-81
2021/01/19 01:48:54;;;;;;;14.83;13.53;;;;;;;4.00;83.32;100396.34;5011330;28;20195;-79
2021/01/19 01:51:22;;;;;;;15.13;13.83;;;;;;;4.00;83.19;100396.34;5000656;28;20199;-80
2021/01/19 01:53:51;;;;;;;13.63;12.43;;;;;;;4.02;83.04;100387.75;5012680;28;20223;-80
2021/01/19 01:56:17;;;;;;;13.17;11.97;;;;;;;4.09;83.41;100386.94;4998342;28;20222;-80
2021/01/19 01:58:48;;;;;;;11.87;10.83;;;;;;;4.16;82.99;100372.34;5006355;28;20253;-80
2021/01/19 02:01:14;;;;;;;11.17;10.10;;;;;;;4.18;82.86;100378.38;4997099;28;20223;-81
2021/01/19 02:03:40;;;;;;;10.03;9.23;;;;;;;4.20;82.34;100375.81;5003890;28;20261;-80
2021/01/19 02:06:06;;;;;;;10.20;9.40;;;;;;;4.23;81.92;100371.53;4998587;28;20720;-82
2021/01/19 02:08:49;;;;;;;10.33;9.33;;;;;;;4.21;82.26;100368.09;5002587;28;20206;-82
2021/01/19 02:11:23;;;;;;;10.30;9.27;;;;;;;4.28;82.55;100367.28;4994074;28;20716;-80
2021/01/19 02:14:02;;;;;;;10.50;9.70;;;;;;;4.25;82.49;100359.50;4996868;28;20207;-80
2021/01/19 02:16:40;;;;;;;10.07;9.37;;;;;;;4.13;83.53;100357.69;4993236;28;20261;-80
2021/01/19 02:19:32;;;;;;;10.03;9.23;;;;;;;4.23;83.40;100350.88;5003769;28;20199;-81
2021/01/19 02:22:21;;;;;;;10.27;9.43;;;;;;;4.22;83.38;100343.97;4996263;28;20254;-79
2021/01/19 02:25:02;;;;;;;10.73;9.83;;;;;;;4.16;83.82;100339.66;5000741;28;20212;-79
2021/01/19 02:27:58;;;;;;;10.30;9.50;;;;;;;4.15;83.98;100342.22;4993524;28;20226;-78
2021/01/19 02:30:41;;;;;;;10.83;9.93;;;;;;;4.14;83.88;100335.31;4976244;28;20282;-78
2021/01/19 02:33:16;;;;;;;9.73;9.03;;;;;;;4.10;83.96;100338.72;4998847;28;20198;-78
2021/01/19 02:35:48;;;;;;;10.00;9.20;;;;;;;4.13;84.39;100331.88;4998253;28;20217;-78
2021/01/19 02:38:22;;;;;;;10.17;9.37;;;;;;;4.20;83.69;100331.91;4994971;28;20669;-78
2021/01/19 02:40:54;;;;;;;10.40;9.50;;;;;;;4.09;83.58;100324.09;4995909;28;20262;-78
2021/01/19 02:43:23;;;;;;;9.93;8.93;;;;;;;4.15;83.14;100319.81;4997941;28;20250;-77
2021/01/19 02:45:50;;;;;;;9.63;8.83;;;;;;;4.16;82.89;100312.94;4995438;28;20207;-79
2021/01/19 02:48:17;;;;;;;10.97;9.40;;;;;;;4.11;83.28;100309.47;5003958;28;20829;-79
2021/01/19 02:50:43;;;;;;;9.40;8.50;;;;;;;3.91;83.37;100306.78;4999151;28;20235;-78
2021/01/19 02:53:11;;;;;;;10.10;9.20;;;;;;;3.96;83.61;100305.97;5002912;28;20199;-78
2021/01/19 02:55:37;;;;;;;10.03;8.97;;;;;;;4.03;83.36;100301.69;5007960;28;20311;-79
2021/01/19 02:58:07;;;;;;;9.60;8.77;;;;;;;4.02;82.97;100294.78;5006021;28;20668;-78
2021/01/19 03:01:01;;;;;;;9.93;9.03;;;;;;;4.10;83.09;100284.50;5005054;28;20253;-79
2021/01/19 03:03:32;;;;;;;10.33;9.63;;;;;;;4.13;82.63;100287.09;4987646;28;20262;-78
2021/01/19 03:06:03;;;;;;;9.47;8.77;;;;;;;4.16;82.70;100287.09;4998641;28;20226;-79
2021/01/19 03:08:32;;;;;;;9.17;8.47;;;;;;;4.18;82.77;100275.94;5009709;28;20257;-78
2021/01/19 03:11:02;;;;;;;8.93;8.23;;;;;;;4.12;82.73;100270.75;5002743;28;20239;-80
2021/01/19 03:13:29;;;;;;;9.23;8.53;;;;;;;4.12;83.01;100280.19;4996882;28;20203;-78
2021/01/19 03:16:05;;;;;;;9.00;8.33;;;;;;;4.14;82.51;100271.63;4996430;28;20203;-78
2021/01/19 03:18:32;;;;;;;9.17;8.40;;;;;;;3.92;83.04;100267.19;4995980;28;20745;-80
2021/01/19 03:20:57;;;;;;;9.63;8.53;;;;;;;3.95;82.93;100262.03;5007220;28;20277;-79
2021/01/19 03:23:23;;;;;;;9.63;8.93;;;;;;;3.88;82.60;100265.44;5001395;28;20630;-78
2021/01/19 03:25:49;;;;;;;9.73;8.93;;;;;;;3.96;82.99;100271.50;4996719;28;20286;-80
2021/01/19 03:28:15;;;;;;;9.93;9.03;;;;;;;3.97;83.25;100261.19;4994726;28;20724;-79
2021/01/19 03:30:41;;;;;;;9.17;8.47;;;;;;;4.00;83.11;100268.09;4989232;28;20223;-80
2021/01/19 03:33:07;;;;;;;9.63;8.83;;;;;;;4.05;82.97;100256.06;5002119;28;20195;-79
2021/01/19 03:35:39;;;;;;;9.23;8.40;;;;;;;4.04;82.59;100245.72;4996419;28;20282;-79
2021/01/19 03:38:04;;;;;;;8.60;7.90;;;;;;;4.00;82.66;100259.47;5002068;28;20700;-79
2021/01/19 03:40:30;;;;;;;9.30;8.60;;;;;;;3.92;82.63;100257.72;5000913;28;20230;-78
2021/01/19 03:42:56;;;;;;;7.83;7.27;;;;;;;3.94;82.74;100252.56;5006310;28;20640;-79
2021/01/19 03:45:22;;;;;;;8.03;7.43;;;;;;;3.83;82.76;100251.66;4999983;28;20688;-78
2021/01/19 03:47:48;;;;;;;8.50;7.87;;;;;;;3.92;83.02;100238.78;4996707;28;20250;-80
2021/01/19 03:50:14;;;;;;;7.97;7.37;;;;;;;3.85;83.11;100235.31;5003997;28;20227;-79
2021/01/19 03:52:40;;;;;;;7.17;6.67;;;;;;;3.84;83.25;100231.00;5000995;28;20200;-79
2021/01/19 03:55:07;;;;;;;7.37;6.87;;;;;;;3.83;83.45;100215.53;4996392;28;20203;-81
2021/01/19 03:57:33;;;;;;;8.17;7.53;;;;;;;3.81;83.67;100199.16;5000511;28;20681;-79
2021/01/19 03:59:59;;;;;;;7.47;6.87;;;;;;;3.79;83.87;100206.88;5006512;28;20242;-79
2021/01/19 04:02:25;;;;;;;7.43;6.83;;;;;;;3.78;83.84;100202.56;4999802;28;20226;-80
2021/01/19 04:04:53;;;;;;;6.53;6.03;;;;;;;3.73;83.97;100201.69;4997261;28;20211;-80
2021/01/19 04:07:19;;;;;;;6.60;6.13;;;;;;;3.85;83.68;100200.91;4996272;28;20230;-79
2021/01/19 04:09:48;;;;;;;6.10;5.60;;;;;;;3.88;84.14;100195.72;5001426;28;20236;-80
2021/01/19 04:12:13;;;;;;;6.57;6.07;;;;;;;3.85;84.09;100190.56;4998973;28;20203;-78
2021/01/19 04:14:39;;;;;;;6.70;6.20;;;;;;;3.76;85.11;100184.47;5007405;28;20215;-79
2021/01/19 04:17:05;;;;;;;6.77;6.30;;;;;;;3.71;85.39;100178.44;5002058;28;20206;-80
2021/01/19 04:19:31;;;;;;;6.97;6.27;;;;;;;3.63;86.02;100174.97;4999806;28;20255;-81
2021/01/19 04:21:57;;;;;;;7.77;7.07;;;;;;;3.56;86.56;100189.53;4998118;28;20250;-79
2021/01/19 04:24:22;;;;;;;8.03;7.33;;;;;;;3.49;86.90;100159.41;4996883;28;20258;-81
2021/01/19 04:26:49;;;;;;;6.97;6.47;;;;;;;3.43;87.02;100177.44;5000057;28;20223;-80
2021/01/19 04:29:15;;;;;;;7.10;6.50;;;;;;;3.47;86.89;100158.53;5007574;28;20227;-80
2021/01/19 04:31:41;;;;;;;6.23;5.77;;;;;;;3.48;86.88;100151.66;4998956;28;20207;-81
2021/01/19 04:34:07;;;;;;;6.43;5.97;;;;;;;3.50;86.57;100152.53;5007234;28;20202;-79
2021/01/19 04:36:33;;;;;;;6.47;5.87;;;;;;;3.53;86.41;100148.25;5003790;28;20202;-79
2021/01/19 04:38:58;;;;;;;5.73;5.30;;;;;;;3.41;86.10;100137.00;4999720;28;20215;-77
2021/01/19 04:41:26;;;;;;;5.43;5.10;;;;;;;3.55;85.83;100135.38;4997707;28;20239;-80
2021/01/19 04:43:54;;;;;;;5.37;4.97;;;;;;;3.60;85.79;100127.63;5013398;28;20204;-81
2021/01/19 04:46:22;;;;;;;5.03;4.63;;;;;;;3.61;85.40;100127.66;5008610;28;20258;-81
2021/01/19 04:48:48;;;;;;;5.40;5.00;;;;;;;3.66;85.02;100127.66;5017245;28;20203;-81
2021/01/19 04:51:17;;;;;;;4.93;4.40;;;;;;;3.69;85.30;100125.97;5002841;28;20277;-80
2021/01/19 04:53:50;;;;;;;4.83;4.43;;;;;;;3.75;84.87;100117.38;5009510;28;20708;-79
2021/01/19 04:56:21;;;;;;;4.47;4.07;;;;;;;3.81;84.29;100111.38;4997842;28;20204;-81
2021/01/19 04:58:53;;;;;;;3.90;3.60;;;;;;;3.82;84.11;100102.75;5004785;28;20229;-80
2021/01/19 05:01:38;;;;;;;3.90;3.50;;;;;;;3.75;84.18;100089.00;5007104;28;20245;-80
2021/01/19 05:04:17;;;;;;;3.97;3.67;;;;;;;3.81;83.69;100075.25;5006908;28;20211;-78
2021/01/19 05:07:17;;;;;;;3.83;3.50;;;;;;;3.79;83.18;100062.31;5005338;28;20313;-80
2021/01/19 05:10:01;;;;;;;4.27;3.60;;;;;;;3.80;83.33;100076.09;4990692;28;20231;-81
2021/01/19 05:12:37;;;;;;;3.40;3.20;;;;;;;3.80;83.27;100069.19;5000481;28;20726;-81
2021/01/19 05:15:04;;;;;;;3.57;3.37;;;;;;;3.88;82.96;100058.88;4999548;28;20592;-81
2021/01/19 05:17:31;;;;;;;3.30;3.03;;;;;;;3.72;83.01;100047.66;4996500;28;20230;-81
2021/01/19 05:19:57;;;;;;;3.80;3.50;;;;;;;3.79;83.20;100046.84;4997740;28;20227;-81
2021/01/19 05:22:22;;;;;;;3.83;3.50;;;;;;;3.77;83.23;100048.56;4999962;28;20250;-80
2021/01/19 05:24:48;;;;;;;3.63;3.23;;;;;;;3.70;83.25;100041.63;4998692;28;20210;-79
2021/01/19 05:27:14;;;;;;;3.13;2.93;;;;;;;3.75;83.34;100025.31;4999981;28;20314;-80
2021/01/19 05:29:42;;;;;;;3.13;2.93;;;;;;;3.71;83.18;100018.41;4998441;28;20851;-80
2021/01/19 05:32:08;;;;;;;2.93;2.70;;;;;;;3.77;83.02;100012.41;4997323;28;20231;-81
2021/01/19 05:34:36;;;;;;;3.17;2.87;;;;;;;3.74;82.76;100005.50;5000908;28;20235;-81
2021/01/19 05:37:02;;;;;;;3.10;2.90;;;;;;;3.75;82.98;100003.81;4997443;28;20200;-80
2021/01/19 05:39:29;;;;;;;2.87;2.67;;;;;;;3.78;82.86;100006.38;4996781;28;20238;-81
2021/01/19 05:41:56;;;;;;;3.87;2.83;;;;;;;3.82;83.02;99990.03;4999203;28;20211;-82
2021/01/19 05:44:24;;;;;;;3.10;2.90;;;;;;;3.78;82.49;99980.56;4997003;28;20657;-78
2021/01/19 05:46:53;;;;;;;3.03;2.73;;;;;;;3.79;82.01;99966.81;4994855;28;20215;-80
2021/01/19 05:49:21;;;;;;;2.57;2.37;;;;;;;3.83;81.79;99968.53;4995936;28;20231;-79
2021/01/19 05:51:49;;;;;;;2.77;2.57;;;;;;;3.77;81.58;99958.19;4997999;28;20195;-78
2021/01/19 05:54:24;;;;;;;2.30;2.00;;;;;;;3.80;81.99;99968.50;4995033;28;20195;-80
2021/01/19 05:56:50;;;;;;;2.50;2.30;;;;;;;3.82;81.32;99960.78;4993968;28;20195;-78
2021/01/19 05:59:34;;;;;;;3.57;3.27;;;;;;;3.86;81.46;99962.50;4994249;28;20222;-80
2021/01/19 06:02:01;;;;;;;2.50;2.30;;;;;;;3.94;81.09;99947.88;4994181;28;20200;-79
2021/01/19 06:04:34;;;;;;;2.57;2.30;;;;;;;3.94;81.09;99941.00;4994216;28;20672;-81
2021/01/19 06:07:02;;;;;;;2.50;1.90;;;;;;;3.83;80.02;99932.38;4998736;28;20692;-78
2021/01/19 06:09:27;;;;;;;2.90;2.37;;;;;;;3.88;80.26;99922.06;4995940;28;20236;-79
2021/01/19 06:11:55;;;;;;;3.20;2.00;;;;;;;3.91;80.33;99927.22;4999735;28;20665;-80
2021/01/19 06:14:22;;;;;;;2.10;1.93;;;;;;;3.91;79.57;99922.91;5008563;28;20203;-80
2021/01/19 06:16:48;;;;;;;2.00;1.90;;;;;;;3.93;78.94;99931.53;5000246;28;20214;-79
2021/01/19 06:19:26;;;;;;;1.80;1.70;;;;;;;3.96;78.97;99908.28;4999861;28;20232;-80
2021/01/19 06:21:52;;;;;;;2.00;1.80;;;;;;;3.98;79.39;99914.31;4999996;28;20187;-80
2021/01/19 06:24:18;;;;;;;3.43;2.00;;;;;;;3.97;78.99;99901.41;5005435;28;20217;-80
2021/01/19 06:26:44;;;;;;;1.80;1.70;;;;;;;3.99;79.39;99897.09;4994234;28;20266;-80
2021/01/19 06:29:10;;;;;;;1.93;1.70;;;;;;;4.04;79.49;99887.59;4994321;28;20238;-80
2021/01/19 06:31:40;;;;;;;2.53;2.20;;;;;;;4.04;79.31;99885.03;4998198;28;20207;-81
2021/01/19 06:34:07;;;;;;;1.87;1.70;;;;;;;4.00;79.02;99875.56;4999071;28;20205;-78
2021/01/19 06:36:37;;;;;;;2.13;1.63;;;;;;;4.00;79.23;99878.13;4996121;28;20278;-79
2021/01/19 06:39:03;;;;;;;3.47;1.70;;;;;;;4.02;79.39;99888.47;4996222;28;20286;-80
2021/01/19 06:41:37;;;;;;;2.13;1.77;;;;;;;3.90;79.63;99861.78;4993170;28;20258;-80
2021/01/19 06:44:11;;;;;;;3.07;1.90;;;;;;;3.88;80.17;99857.50;4993676;28;20199;-80
2021/01/19 06:46:45;;;;;;;3.30;1.93;;;;;;;3.87;80.22;99846.31;4996673;28;20220;-80
2021/01/19 06:49:14;;;;;;;5.27;1.90;;;;;;;3.81;80.53;99832.59;4995665;28;20587;-81
2021/01/19 06:51:48;;;;;;;3.70;2.07;;;;;;;3.84;80.23;99832.56;4995638;28;20200;-81
2021/01/19 06:54:19;;;;;;;2.93;1.80;;;;;;;3.85;81.35;99832.56;4996482;28;20207;-80
2021/01/19 06:56:55;;;;;;;3.47;1.90;;;;;;;3.89;80.98;99841.16;4993212;28;20203;-80
2021/01/19 06:59:42;;;;;;;3.40;1.97;;;;;;;3.87;80.66;99827.41;4993126;28;20246;-79
2021/01/19 07:02:16;;;;;;;4.60;2.10;;;;;;;3.94;81.35;99823.94;4993820;28;20226;-81
2021/01/19 07:04:47;;;;;;;1.97;1.30;;;;;;;3.78;80.34;99828.25;4991196;28;20199;-81
2021/01/19 07:07:19;;;;;;;2.37;1.90;;;;;;;3.71;80.79;99814.50;4995727;28;20257;-80
2021/01/19 07:10:04;;;;;;;3.33;1.90;;;;;;;3.72;81.48;99805.88;4997488;28;20250;-80
2021/01/19 07:12:53;;;;;;;1.73;1.50;;;;;;;3.71;80.60;99798.19;4998041;28;20199;-82
2021/01/19 07:15:22;;;;;;;2.53;1.80;;;;;;;3.71;80.26;99785.28;4994723;28;20210;-79
2021/01/19 07:18:16;;;;;;;4.50;2.10;;;;;;;3.71;80.73;99782.69;4996381;28;20603;-79
2021/01/19 07:21:01;;;;;;;3.47;1.63;;;;;;;3.64;80.78;99762.91;4992940;28;20227;-78
2021/01/19 07:23:39;;;;;;;2.53;1.97;;;;;;;3.60;81.19;99756.03;4993411;28;20638;-81
2021/01/19 07:26:05;;;;;;;3.47;1.93;;;;;;;3.67;81.31;99745.69;4997217;28;20672;-82
2021/01/19 07:28:31;;;;;;;4.03;1.80;;;;;;;3.68;82.00;99743.97;4997126;28;20210;-80
2021/01/19 07:30:58;;;;;;;4.00;1.60;;;;;;;3.62;81.47;99743.97;4993312;28;20782;-78
2021/01/19 07:33:25;;;;;;;4.03;1.77;;;;;;;3.70;82.27;99740.50;4996025;28;20242;-80
2021/01/19 07:35:51;;;;;;;3.77;1.73;;;;;;;3.64;82.19;99730.19;4996148;28;20207;-79
2021/01/19 07:38:22;;;;;;;3.53;2.00;;;;;;;3.67;81.91;99729.34;4994356;28;20196;-78
2021/01/19 07:40:48;;;;;;;3.47;1.73;;;;;;;3.57;82.21;99724.22;4992115;28;20227;-78
2021/01/19 07:43:16;;;;;;;3.53;1.73;;;;;;;3.61;83.11;99719.91;4993300;28;20204;-78
2021/01/19 07:46:17;;;;;;;1.80;1.40;;;;;;;3.60;82.89;99710.44;4990105;28;20215;-79
2021/01/19 07:48:44;;;;;;;4.17;2.37;;;;;;;3.69;83.00;99713.00;4992531;28;20198;-81
2021/01/19 07:51:13;;;;;;;4.60;1.87;;;;;;;3.80;82.78;99706.94;4997084;28;20270;-81
2021/01/19 07:53:47;;;;;;;4.40;2.30;;;;;;;3.74;83.20;99695.75;4992621;28;20784;-79
2021/01/19 07:56:22;;;;;;;2.40;1.80;;;;;;;3.56;83.11;99699.25;4994571;28;20211;-78
2021/01/19 07:58:48;;;;;;;3.00;1.70;;;;;;;3.55;83.52;99705.28;4995696;28;20207;-79
2021/01/19 08:01:23;;;;;;;5.63;2.10;;;;;;;3.60;83.93;99694.09;4995014;28;20235;-78
2021/01/19 08:03:49;;;;;;;3.43;1.90;;;;;;;3.76;84.97;99701.78;4996434;28;20199;-78
2021/01/19 08:06:15;;;;;;;5.53;3.23;;;;;;;3.68;85.06;99689.78;4998723;28;20599;-78
2021/01/19 08:08:41;;;;;;;2.80;1.93;;;;;;;3.72;84.81;99682.00;5006936;28;20204;-78
2021/01/19 08:11:19;;;;;;;3.63;1.90;;;;;;;3.82;85.47;99679.41;5000541;28;20241;-77
2021/01/19 08:13:46;;;;;;;2.27;1.60;;;;;;;3.64;84.36;99662.25;5009177;28;20217;-78
2021/01/19 08:16:26;;;;;;;7.53;2.23;;;;;;;3.62;84.92;99653.66;4996443;28;20331;-79
2021/01/19 08:19:04;;;;;;;5.57;1.80;;;;;;;3.71;85.03;99651.06;5008531;28;20207;-81
2021/01/19 08:21:36;;;;;;;3.23;1.60;;;;;;;3.57;85.48;99664.84;5000446;28;20221;-80
2021/01/19 08:24:07;;;;;;;3.90;2.33;;;;;;;3.62;85.20;99641.59;4996921;28;20211;-81
2021/01/19 08:26:34;;;;;;;2.47;2.17;;;;;;;3.68;85.81;99625.25;5004384;28;20227;-83
2021/01/19 08:29:02;;;;;;;3.17;1.77;;;;;;;3.60;85.18;99625.28;5002097;28;20204;-82
2021/01/19 08:31:30;;;;;;;2.07;1.87;;;;;;;3.54;85.47;99602.09;4998891;28;20207;-79
2021/01/19 08:34:01;;;;;;;3.90;2.43;;;;;;;3.62;86.28;99608.06;5014495;28;20199;-81
2021/01/19 08:36:28;;;;;;;4.50;1.67;;;;;;;3.54;85.48;99599.50;5009916;28;20253;-81
2021/01/19 08:38:57;;;;;;;3.50;2.00;;;;;;;3.51;85.56;99605.53;5007105;28;20207;-80
2021/01/19 08:41:22;;;;;;;7.53;1.80;;;;;;;3.48;85.72;99590.06;5005639;28;20202;-78
2021/01/19 08:43:57;;;;;;;3.17;1.70;;;;;;;3.43;85.98;99590.94;5013090;28;20549;-75
2021/01/19 08:46:24;;;;;;;1.93;1.80;;;;;;;3.43;85.27;99585.78;4996093;28;20214;-76
2021/01/19 08:48:50;;;;;;;2.30;2.10;;;;;;;3.44;85.75;99595.25;5003955;28;20870;-78
2021/01/19 08:51:25;;;;;;;2.00;1.67;;;;;;;3.37;85.47;99591.84;5010800;28;20412;-77
2021/01/19 08:53:51;;;;;;;2.70;1.90;;;;;;;3.36;85.88;99575.47;5010001;28;20279;-77
2021/01/19 08:56:22;;;;;;;4.17;1.80;;;;;;;3.38;85.63;99578.91;5007316;28;20200;-77
2021/01/19 08:58:48;;;;;;;2.93;1.50;;;;;;;3.24;85.88;99583.25;5010306;28;20215;-79
2021/01/19 09:01:14;;;;;;;2.50;1.87;;;;;;;3.26;86.31;99584.13;5009001;28;20227;-76
2021/01/19 09:03:40;;;;;;;3.10;2.80;;;;;;;3.14;86.04;99592.75;5009046;28;20214;-77
2021/01/19 09:06:08;;;;;;;2.80;2.17;;;;;;;3.09;86.22;99586.75;5011965;28;20318;-77
2021/01/19 09:08:38;;;;;;;2.30;2.10;;;;;;;3.06;86.60;99578.16;5000974;28;20234;-78
2021/01/19 09:11:07;;;;;;;3.40;1.90;;;;;;;3.10;87.37;99572.13;4998697;28;20231;-78
2021/01/19 09:13:38;;;;;;;2.13;1.83;;;;;;;3.20;87.06;99580.72;4999453;28;20238;-80
2021/01/19 09:16:04;;;;;;;2.53;2.33;;;;;;;3.14;86.34;99571.25;4998952;28;20665;-79
2021/01/19 09:18:30;;;;;;;3.13;2.67;;;;;;;3.05;87.09;99568.69;5000672;28;20585;-77
2021/01/19 09:21:03;;;;;;;2.40;2.00;;;;;;;3.01;87.12;99567.84;4997360;28;20247;-78
2021/01/19 09:23:35;;;;;;;3.07;2.07;;;;;;;3.09;87.09;99560.97;4998173;28;20203;-80
2021/01/19 09:26:06;;;;;;;2.20;2.00;;;;;;;3.07;87.71;99556.66;4998954;28;20218;-80
2021/01/19 09:28:36;;;;;;;2.33;1.87;;;;;;;2.99;87.18;99548.94;4998084;28;20219;-79
2021/01/19 09:31:10;;;;;;;1.87;1.60;;;;;;;2.98;86.83;99547.25;4998178;28;20227;-76
2021/01/19 09:33:35;;;;;;;2.63;1.87;;;;;;;2.91;87.01;99553.28;4998237;28;20255;-80
2021/01/19 09:36:06;;;;;;;4.17;2.60;;;;;;;2.89;86.85;99550.69;4996932;28;20677;-80
2021/01/19 09:38:32;;;;;;;2.97;2.60;;;;;;;2.80;87.13;99542.16;4999455;28;20206;-80
2021/01/19 09:40:59;;;;;;;2.90;2.60;;;;;;;2.84;87.91;99531.81;4999265;28;20227;-80
2021/01/19 09:43:25;;;;;;;3.43;2.73;;;;;;;2.85;87.28;99533.50;4997270;28;20207;-77
2021/01/19 09:45:51;;;;;;;2.37;1.90;;;;;;;2.83;87.73;99532.66;4994715;28;20681;-78
2021/01/19 09:48:19;;;;;;;1.70;1.60;;;;;;;2.77;87.54;99533.56;4988933;28;20219;-79
2021/01/19 09:50:45;;;;;;;2.77;2.27;;;;;;;2.78;87.84;99532.69;4998137;28;20300;-79
2021/01/19 09:53:11;;;;;;;4.13;2.03;;;;;;;2.82;87.92;99530.97;4996223;28;20219;-76
2021/01/19 09:55:37;;;;;;;2.47;2.00;;;;;;;2.82;88.14;99538.69;4995466;28;20245;-78
2021/01/19 09:58:05;;;;;;;4.20;3.80;;;;;;;2.84;88.14;99529.25;4996567;28;20208;-78
2021/01/19 10:00:36;;;;;;;2.20;1.83;;;;;;;2.92;87.78;99527.50;4996441;28;20370;-80
2021/01/19 10:03:09;;;;;;;2.07;1.97;;;;;;;2.91;86.89;99528.34;4996755;28;20237;-78
2021/01/19 10:05:35;;;;;;;2.80;1.83;;;;;;;2.90;86.85;99521.50;4990101;28;20832;-77
2021/01/19 10:08:01;;;;;;;2.17;1.90;;;;;;;2.76;87.96;99507.78;4995552;28;20455;-78
2021/01/19 10:10:34;;;;;;;2.10;1.90;;;;;;;2.87;88.00;99511.16;4990316;28;20292;-77
2021/01/19 10:13:02;;;;;;;3.17;2.00;;;;;;;2.89;87.48;99495.72;4996174;28;20222;-77
2021/01/19 10:15:30;;;;;;;4.03;1.80;;;;;;;2.91;86.88;99483.69;4990276;28;20257;-77
2021/01/19 10:17:57;;;;;;;2.30;2.03;;;;;;;2.98;87.93;99491.38;4994163;28;20222;-80
2021/01/19 10:20:31;;;;;;;1.97;1.87;;;;;;;3.03;87.17;99472.47;4995440;28;20699;-77
2021/01/19 10:22:57;;;;;;;2.80;1.60;;;;;;;3.10;87.01;99458.69;4996172;28;20203;-80
2021/01/19 10:25:29;;;;;;;1.97;1.67;;;;;;;3.12;86.77;99459.53;4990931;28;20207;-77
2021/01/19 10:27:57;;;;;;;3.20;1.37;;;;;;;3.11;86.67;99465.56;4992883;28;20226;-76
2021/01/19 10:30:31;;;;;;;2.27;2.07;;;;;;;3.15;86.85;99437.19;4990105;28;20223;-77
2021/01/19 10:32:58;;;;;;;1.37;1.27;;;;;;;3.07;86.76;99441.53;4992497;28;20657;-77
2021/01/19 10:35:27;;;;;;;1.43;1.33;;;;;;;3.04;86.33;99440.69;4989880;28;20580;-80
2021/01/19 10:37:54;;;;;;;2.30;1.53;;;;;;;3.03;87.63;99429.50;4995627;28;20760;-77
2021/01/19 10:40:20;;;;;;;1.23;1.13;;;;;;;3.14;87.33;99411.41;4992535;28;20226;-76
2021/01/19 10:42:49;;;;;;;1.87;1.50;;;;;;;3.16;87.72;99418.25;4992654;28;20195;-78
2021/01/19 10:45:26;;;;;;;0.90;0.90;;;;;;;3.02;86.50;99401.16;4990902;28;20210;-76
2021/01/19 10:47:55;;;;;;;1.47;1.30;;;;;;;2.92;87.04;99390.88;4994772;28;20232;-77
2021/01/19 10:50:26;;;;;;;2.07;1.00;;;;;;;3.02;87.13;99376.22;4992707;28;20231;-77
2021/01/19 10:52:53;;;;;;;1.57;1.47;;;;;;;3.14;87.71;99383.88;4993259;28;20211;-80
2021/01/19 10:55:19;;;;;;;2.00;1.47;;;;;;;3.07;87.22;99382.22;4993914;28;20273;-80
2021/01/19 10:57:45;;;;;;;1.40;0.93;;;;;;;3.05;87.63;99360.72;4993244;28;20207;-78
2021/01/19 11:00:12;;;;;;;1.60;1.50;;;;;;;3.13;87.10;99374.47;4996909;28;20231;-79
2021/01/19 11:02:52;;;;;;;1.33;1.23;;;;;;;3.18;87.25;99369.25;4994883;28;20203;-80
2021/01/19 11:05:19;;;;;;;1.10;1.00;;;;;;;3.24;86.98;99364.06;4991290;28;20199;-79
2021/01/19 11:07:45;;;;;;;0.83;0.83;;;;;;;3.12;86.03;99349.53;4995732;28;20278;-79
2021/01/19 11:10:13;;;;;;;1.17;1.10;;;;;;;3.20;86.72;99352.06;4997340;28;20243;-78
2021/01/19 11:12:39;;;;;;;1.07;1.03;;;;;;;3.07;86.16;99342.69;4996183;28;20207;-78
2021/01/19 11:15:06;;;;;;;0.80;0.80;;;;;;;3.14;86.77;99350.38;4995296;28;20316;-78
2021/01/19 11:17:32;;;;;;;0.80;0.80;;;;;;;3.12;87.03;99357.25;4991964;28;20199;-78
2021/01/19 11:19:58;;;;;;;0.73;0.73;;;;;;;3.26;87.20;99358.91;4991092;28;20329;-79
2021/01/19 11:22:25;;;;;;;0.60;0.60;;;;;;;3.12;86.18;99335.78;4998331;28;20240;-78
2021/01/19 11:24:51;;;;;;;0.77;0.77;;;;;;;3.13;86.45;99330.63;4993742;28;20210;-77
2021/01/19 11:27:16;;;;;;;0.70;0.70;;;;;;;3.26;86.71;99338.28;4992152;28;20511;-79
2021/01/19 11:29:42;;;;;;;0.80;0.60;;;;;;;3.29;86.31;99327.91;4994374;28;20222;-80
2021/01/19 11:32:08;;;;;;;0.83;0.50;;;;;;;3.31;85.68;99332.22;4996839;28;20216;-81
2021/01/19 11:34:34;;;;;;;0.77;0.50;;;;;;;3.20;86.25;99317.69;4994703;28;20583;-80
2021/01/19 11:37:00;;;;;;;0.40;0.40;;;;;;;3.09;86.29;99321.22;4994111;28;20192;-78
2021/01/19 11:39:27;;;;;;;1.33;0.70;;;;;;;3.25;87.54;99318.50;4993681;28;20262;-79
2021/01/19 11:41:52;;;;;;;0.50;0.43;;;;;;;3.33;87.94;99316.72;4995283;28;20203;-81
2021/01/19 11:44:19;;;;;;;0.47;0.40;;;;;;;3.36;87.38;99301.22;4997187;28;20226;-79